Thomasville, North Carolina
Current Conditions -  °F | °C
As of 4:15 PM on Monday 22 Dec 2014 (Local Time) from KEXX Reporting Station
Haze Haze  
Wind Chill: 36°   Ceiling: 400
Heat Index: 36°   Visibility: 2.5mi
Dew Point: 35°   Wind: 3mph
Humidity: 97%   Direction: 20°NNE
Pressure: 30.05"   Gusts: NA
Location:  35.88°N, 80.08°W
Report Text: KEXX 222115Z AUTO 02003KT 2 1/2SM BR OVC004 02/02 A3005 RMK AO2 T00240019
Loading
Personal Weather Stations






























Interactive Weather Map New forecast layout! Learn more

10-Day Weather Forecast

Advertisements
Track Severe Weather on mobile